Time;durP1;ratioP1;P1;durP2;ratioP2;P2;SDS_P1;SDS_P2;PMS_P1;PMS_P2;Temp;Humidity;BMP_temperature;BMP_pressure;BME280_temperature;BME280_humidity;BME280_pressure;Samples;Min_cycle;Max_cycle;Signal;HPM_P1;HPM_P2
2023/05/21 00:02:03;;;;;;;13.18;8.88;;;;;;;16.75;100.00;99826.59;5067423;28;20126;-18
2023/05/21 00:04:30;;;;;;;12.40;8.73;;;;;;;16.52;100.00;99821.72;5067578;28;20553;-18
2023/05/21 00:06:59;;;;;;;13.20;9.82;;;;;;;16.54;100.00;99817.66;5067693;28;20040;-23
2023/05/21 00:09:25;;;;;;;14.30;9.40;;;;;;;16.59;100.00;99819.56;5068005;28;20036;-18
2023/05/21 00:11:50;;;;;;;13.18;8.52;;;;;;;16.51;100.00;99820.06;5067412;28;20037;-18
2023/05/21 00:14:16;;;;;;;17.23;8.50;;;;;;;16.72;100.00;99802.91;5067550;28;20040;-18
2023/05/21 00:16:43;;;;;;;15.88;8.88;;;;;;;16.72;100.00;99797.53;5067242;28;20465;-18
2023/05/21 00:19:09;;;;;;;13.30;7.90;;;;;;;16.77;100.00;99800.22;5067133;28;21810;-18
2023/05/21 00:21:34;;;;;;;11.35;8.35;;;;;;;16.79;100.00;99792.69;5067307;28;20025;-18
2023/05/21 00:24:00;;;;;;;11.70;8.27;;;;;;;16.72;100.00;99789.47;5067323;28;20510;-18
2023/05/21 00:26:25;;;;;;;13.07;8.52;;;;;;;16.63;100.00;99774.88;5067258;28;20785;-18
2023/05/21 00:28:51;;;;;;;12.45;8.35;;;;;;;16.82;100.00;99786.00;5067092;28;20031;-18
2023/05/21 00:31:17;;;;;;;13.73;9.10;;;;;;;16.72;100.00;99781.38;5067334;28;20826;-18
2023/05/21 00:33:43;;;;;;;12.82;8.93;;;;;;;16.86;100.00;99782.50;5066778;28;20035;-18
2023/05/21 00:36:09;;;;;;;98.97;67.43;;;;;;;16.79;100.00;99787.28;5066282;28;20162;-18
2023/05/21 00:38:36;;;;;;;40.75;28.17;;;;;;;16.79;100.00;99778.41;5066622;28;20020;-18
2023/05/21 00:41:02;;;;;;;46.85;26.48;;;;;;;16.85;100.00;99775.50;5066985;28;20613;-18
2023/05/21 00:43:27;;;;;;;47.10;28.80;;;;;;;16.80;100.00;99786.25;5066703;28;20131;-22
2023/05/21 00:45:55;;;;;;;54.55;33.65;;;;;;;16.64;100.00;99773.81;5066961;28;20028;-18
2023/05/21 00:48:21;;;;;;;62.55;37.80;;;;;;;16.74;100.00;99784.63;5066637;28;20013;-18
2023/05/21 00:50:48;;;;;;;82.80;50.78;;;;;;;16.65;100.00;99786.19;5066200;28;20162;-18
2023/05/21 00:53:14;;;;;;;70.95;39.22;;;;;;;16.63;100.00;99773.03;5066355;28;20525;-18
2023/05/21 00:55:39;;;;;;;85.95;47.05;;;;;;;16.67;100.00;99765.19;5066576;28;20020;-19
2023/05/21 00:58:07;;;;;;;106.05;50.65;;;;;;;16.50;100.00;99759.25;5066530;28;20055;-18
2023/05/21 01:00:34;;;;;;;206.93;92.28;;;;;;;16.67;100.00;99778.66;5066613;28;20483;-18
2023/05/21 01:03:00;;;;;;;65.15;33.28;;;;;;;16.52;100.00;99759.78;5066062;28;20060;-18
2023/05/21 01:05:27;;;;;;;32.28;18.67;;;;;;;16.42;100.00;99760.56;5066644;28;20032;-20
2023/05/21 01:07:54;;;;;;;24.27;12.77;;;;;;;16.36;100.00;99772.41;5066526;28;20024;-18
2023/05/21 01:10:20;;;;;;;14.98;9.50;;;;;;;16.36;100.00;99765.13;5066326;28;20812;-18
2023/05/21 01:12:46;;;;;;;16.25;9.32;;;;;;;16.47;100.00;99761.41;5066290;28;20146;-18
2023/05/21 01:15:13;;;;;;;14.20;8.63;;;;;;;16.50;100.00;99767.31;5066138;28;20540;-18
2023/05/21 01:17:40;;;;;;;11.23;8.23;;;;;;;16.38;100.00;99754.09;5066177;28;20032;-18
2023/05/21 01:20:09;;;;;;;18.30;10.55;;;;;;;16.43;100.00;99756.81;5066085;28;20028;-18
2023/05/21 01:22:40;;;;;;;16.40;9.35;;;;;;;16.53;100.00;99756.00;5065971;28;20483;-18
2023/05/21 01:25:06;;;;;;;16.65;10.43;;;;;;;16.50;100.00;99757.38;5066548;28;20036;-18
2023/05/21 01:27:31;;;;;;;20.63;10.60;;;;;;;16.46;100.00;99749.00;5065782;28;20020;-18
2023/05/21 01:29:57;;;;;;;55.85;26.77;;;;;;;16.55;100.00;99761.94;5065983;28;20502;-18
2023/05/21 01:32:22;;;;;;;34.92;20.45;;;;;;;16.43;100.00;99749.53;5065871;28;20781;-18
2023/05/21 01:35:05;;;;;;;12.45;8.55;;;;;;;16.43;100.00;99736.09;5065753;28;20028;-18
2023/05/21 01:37:40;;;;;;;83.60;34.13;;;;;;;16.27;100.00;99753.28;5065676;28;20027;-18
2023/05/21 01:40:39;;;;;;;36.72;18.20;;;;;;;16.33;100.00;99768.34;5065625;28;20024;-18
2023/05/21 01:43:07;;;;;;;39.38;20.00;;;;;;;16.48;100.00;99757.63;5065837;28;20025;-18
2023/05/21 01:45:35;;;;;;;30.90;15.85;;;;;;;16.60;100.00;99754.69;5066073;28;20040;-18
2023/05/21 01:48:02;;;;;;;17.95;10.05;;;;;;;16.56;100.00;99744.72;5064983;28;20111;-19
2023/05/21 01:50:29;;;;;;;16.23;9.07;;;;;;;16.59;100.00;99738.81;5065968;28;20124;-20
2023/05/21 01:52:59;;;;;;;19.73;12.52;;;;;;;16.52;100.00;99743.66;5065605;28;20427;-19
2023/05/21 01:55:26;;;;;;;18.10;11.85;;;;;;;16.55;100.00;99740.41;5065595;28;20669;-18
2023/05/21 01:57:53;;;;;;;15.50;10.93;;;;;;;16.45;100.00;99744.72;5065588;28;20085;-18
2023/05/21 02:00:24;;;;;;;13.95;8.85;;;;;;;16.45;100.00;99733.94;5065820;28;20103;-18
2023/05/21 02:02:50;;;;;;;55.90;35.10;;;;;;;16.45;100.00;99744.72;5065651;28;20562;-18
2023/05/21 02:05:16;;;;;;;19.38;12.93;;;;;;;16.43;100.00;99748.75;5065281;28;20112;-18
2023/05/21 02:07:44;;;;;;;18.15;11.85;;;;;;;16.50;100.00;99732.34;5065606;28;20025;-18
2023/05/21 02:10:10;;;;;;;138.77;72.37;;;;;;;16.37;100.00;99742.53;5065589;28;20028;-18
2023/05/21 02:12:36;;;;;;;127.72;68.28;;;;;;;16.59;100.00;99744.19;5065458;28;20492;-19
2023/05/21 02:15:01;;;;;;;314.92;134.40;;;;;;;16.42;100.00;99747.91;5065268;28;20097;-18
2023/05/21 02:17:30;;;;;;;465.88;209.02;;;;;;;16.40;100.00;99744.69;5065295;28;20037;-18
2023/05/21 02:19:56;;;;;;;233.68;103.20;;;;;;;16.45;100.00;99738.53;5065396;28;20104;-18
2023/05/21 02:22:21;;;;;;;107.07;51.63;;;;;;;16.38;100.00;99737.94;5065259;28;20257;-18
2023/05/21 02:24:47;;;;;;;211.60;105.53;;;;;;;16.44;100.00;99739.59;5065142;28;20450;-18
2023/05/21 02:27:16;;;;;;;96.30;49.65;;;;;;;16.35;100.00;99744.69;5065209;28;20781;-18
2023/05/21 02:29:42;;;;;;;69.38;35.33;;;;;;;16.27;100.00;99726.38;5064912;28;20036;-18
2023/05/21 02:32:07;;;;;;;78.68;40.60;;;;;;;16.45;100.00;99742.00;5065050;28;20124;-18
2023/05/21 02:34:33;;;;;;;330.88;148.93;;;;;;;16.48;100.00;99737.97;5064936;28;20028;-17
2023/05/21 02:36:59;;;;;;;425.38;222.30;;;;;;;16.44;100.00;99736.88;5064772;28;20670;-23
2023/05/21 02:39:25;;;;;;;176.00;84.63;;;;;;;16.46;100.00;99735.53;5065678;28;20519;-17
2023/05/21 02:41:51;;;;;;;35.53;20.13;;;;;;;16.33;100.00;99730.69;5065018;28;20538;-18
2023/05/21 02:44:18;;;;;;;25.92;15.70;;;;;;;16.42;100.00;99731.78;5065001;28;20155;-19
2023/05/21 02:46:43;;;;;;;21.83;13.88;;;;;;;16.35;100.00;99739.31;5064998;28;20024;-18
2023/05/21 02:49:09;;;;;;;104.43;49.85;;;;;;;16.38;100.00;99738.75;5064532;28;20032;-18
2023/05/21 02:51:34;;;;;;;154.23;81.07;;;;;;;16.30;100.00;99733.88;5064997;28;20032;-17
2023/05/21 02:54:00;;;;;;;252.23;126.35;;;;;;;16.28;100.00;99733.34;5064703;28;20157;-18
2023/05/21 02:56:25;;;;;;;347.10;190.25;;;;;;;16.24;100.00;99724.19;5064879;28;20116;-18
2023/05/21 02:58:51;;;;;;;323.63;165.40;;;;;;;16.30;100.00;99746.53;5066043;28;20029;-18
2023/05/21 03:01:17;;;;;;;56.67;33.05;;;;;;;16.25;100.00;99736.59;5068888;28;20028;-18
2023/05/21 03:03:42;;;;;;;33.03;20.15;;;;;;;16.13;100.00;99733.31;5068613;28;20032;-18
2023/05/21 03:06:08;;;;;;;43.97;25.85;;;;;;;16.09;100.00;99724.16;5068320;28;20412;-18
2023/05/21 03:08:35;;;;;;;73.80;41.67;;;;;;;16.19;100.00;99726.88;5068799;28;20052;-18
2023/05/21 03:11:00;;;;;;;74.90;42.60;;;;;;;16.14;100.00;99737.59;5068824;28;20032;-18
2023/05/21 03:13:26;;;;;;;43.80;23.58;;;;;;;16.20;100.00;99747.31;5068430;28;20397;-19
2023/05/21 03:15:55;;;;;;;21.15;13.25;;;;;;;16.30;100.00;99741.97;5068488;28;20032;-18
2023/05/21 03:18:23;;;;;;;28.85;17.00;;;;;;;16.12;100.00;99740.59;5068291;28;20616;-18
2023/05/21 03:20:48;;;;;;;33.60;17.92;;;;;;;16.01;100.00;99734.31;5068575;28;20028;-18
2023/05/21 03:23:14;;;;;;;73.03;35.80;;;;;;;16.19;100.00;99748.41;5068293;28;20090;-18
2023/05/21 03:25:40;;;;;;;48.28;27.27;;;;;;;16.13;100.00;99742.19;5068377;28;20025;-20
2023/05/21 03:28:05;;;;;;;85.15;40.75;;;;;;;16.08;100.00;99734.09;5068128;28;20086;-18
2023/05/21 03:30:31;;;;;;;360.73;159.82;;;;;;;16.18;100.00;99749.44;5068174;28;20028;-18
2023/05/21 03:32:58;;;;;;;218.82;91.57;;;;;;;16.16;100.00;99752.44;5068469;28;20033;-19
2023/05/21 03:35:24;;;;;;;139.68;64.18;;;;;;;16.15;100.00;99750.00;5068117;28;20024;-18
2023/05/21 03:37:49;;;;;;;190.02;82.60;;;;;;;16.36;100.00;99748.97;5068259;28;20427;-18
2023/05/21 03:40:15;;;;;;;111.05;54.85;;;;;;;16.36;100.00;99746.28;5067817;28;20417;-17
2023/05/21 03:42:40;;;;;;;39.75;23.67;;;;;;;16.23;100.00;99747.59;5068094;28;20050;-18
2023/05/21 03:45:06;;;;;;;27.30;15.32;;;;;;;16.14;100.00;99738.44;5068154;28;20036;-18
2023/05/21 03:47:32;;;;;;;13.60;8.80;;;;;;;16.23;100.00;99749.50;5068044;28;20148;-19
2023/05/21 03:49:58;;;;;;;12.45;8.70;;;;;;;16.36;100.00;99751.66;5068157;28;20028;-19
2023/05/21 03:52:23;;;;;;;12.68;7.72;;;;;;;16.42;100.00;99753.28;5067811;28;21206;-18
2023/05/21 03:54:49;;;;;;;10.85;7.22;;;;;;;16.42;100.00;99756.00;5067911;28;20387;-18
2023/05/21 03:57:14;;;;;;;12.25;8.32;;;;;;;16.57;100.00;99741.78;5049829;28;20107;-18
2023/05/21 03:59:40;;;;;;;10.52;7.28;;;;;;;16.56;100.00;99753.59;5067910;28;20498;-18
2023/05/21 04:02:05;;;;;;;13.52;7.55;;;;;;;16.61;100.00;99731.25;5067536;28;20028;-18
2023/05/21 04:04:32;;;;;;;61.88;31.67;;;;;;;16.65;100.00;99745.81;5067837;28;20483;-18
2023/05/21 04:06:58;;;;;;;77.07;38.55;;;;;;;16.71;100.00;99746.63;5067901;28;20036;-18
2023/05/21 04:09:24;;;;;;;123.25;57.80;;;;;;;16.86;100.00;99744.81;5067414;28;20032;-18
2023/05/21 04:11:49;;;;;;;129.32;55.63;;;;;;;16.75;100.00;99740.44;5066462;28;20027;-18
2023/05/21 04:14:15;;;;;;;79.53;36.42;;;;;;;16.67;100.00;99740.97;5067443;28;20031;-18
2023/05/21 04:16:42;;;;;;;50.30;24.88;;;;;;;16.87;100.00;99748.28;5067276;28;20419;-18
2023/05/21 04:19:08;;;;;;;44.05;21.35;;;;;;;16.80;99.97;99745.84;5067250;28;20107;-19
2023/05/21 04:21:35;;;;;;;109.80;50.35;;;;;;;16.84;98.89;99746.97;5067108;28;20535;-18
2023/05/21 04:24:00;;;;;;;98.38;45.95;;;;;;;16.70;100.00;99747.72;5067466;28;20040;-21
2023/05/21 04:26:26;;;;;;;31.35;17.20;;;;;;;16.69;99.65;99730.75;5067615;28;20039;-18
2023/05/21 04:28:53;;;;;;;20.85;10.60;;;;;;;16.81;99.86;99752.88;5067274;28;20115;-18
2023/05/21 04:31:18;;;;;;;15.68;8.38;;;;;;;16.67;100.00;99757.13;5067144;28;20093;-18
2023/05/21 04:33:44;;;;;;;41.78;20.33;;;;;;;16.65;100.00;99761.97;5067061;28;20119;-19
2023/05/21 04:36:10;;;;;;;71.93;36.45;;;;;;;16.75;100.00;99763.88;5066757;28;20439;-18
2023/05/21 04:38:38;;;;;;;122.13;55.38;;;;;;;16.82;99.07;99754.50;5067134;28;20016;-18
2023/05/21 04:41:04;;;;;;;121.60;55.53;;;;;;;16.84;100.00;99760.41;5066864;28;20032;-18
2023/05/21 04:43:30;;;;;;;35.90;19.58;;;;;;;16.78;100.00;99756.06;5067334;28;20427;-18
2023/05/21 04:45:56;;;;;;;30.08;15.63;;;;;;;16.90;100.00;99763.09;5067161;28;20139;-18
2023/05/21 04:48:25;;;;;;;125.15;62.45;;;;;;;16.85;99.91;99759.34;5066596;28;20107;-18
2023/05/21 04:50:52;;;;;;;176.43;80.25;;;;;;;16.72;100.00;99748.25;5066995;28;20142;-18
2023/05/21 04:53:17;;;;;;;220.57;97.38;;;;;;;16.68;100.00;99758.75;5066707;28;20155;-18
2023/05/21 04:55:43;;;;;;;150.52;65.85;;;;;;;16.69;100.00;99757.66;5066793;28;20044;-18
2023/05/21 04:58:11;;;;;;;85.72;40.13;;;;;;;16.80;100.00;99756.63;5066449;28;20029;-18
2023/05/21 05:00:37;;;;;;;20.42;10.80;;;;;;;16.71;100.00;99762.78;5066590;28;20119;-20
2023/05/21 05:03:03;;;;;;;13.88;8.88;;;;;;;16.61;100.00;99763.56;5066435;28;20169;-20
2023/05/21 05:05:29;;;;;;;12.75;7.70;;;;;;;16.59;100.00;99771.09;5066606;28;20020;-20
2023/05/21 05:07:56;;;;;;;11.30;8.02;;;;;;;16.72;100.00;99780.56;5066571;28;20032;-18
2023/05/21 05:10:21;;;;;;;11.82;6.85;;;;;;;16.79;100.00;99779.22;5066585;28;20900;-18
2023/05/21 05:12:47;;;;;;;11.27;7.53;;;;;;;16.83;100.00;99777.66;5066391;28;20104;-18
2023/05/21 05:15:13;;;;;;;17.52;10.60;;;;;;;16.80;100.00;99778.16;5066426;28;20043;-19
2023/05/21 05:17:39;;;;;;;18.50;10.38;;;;;;;16.90;100.00;99781.97;5066304;28;20467;-18
2023/05/21 05:20:06;;;;;;;13.25;8.30;;;;;;;16.85;100.00;99780.88;5066120;28;20047;-17
2023/05/21 05:22:32;;;;;;;13.30;8.00;;;;;;;16.80;100.00;99778.16;5066414;28;20051;-25
2023/05/21 05:24:57;;;;;;;11.63;7.63;;;;;;;16.76;100.00;99776.28;5066203;28;20048;-18
2023/05/21 05:27:23;;;;;;;12.18;7.80;;;;;;;16.74;100.00;99773.84;5065893;28;20501;-18
2023/05/21 05:29:48;;;;;;;12.00;8.07;;;;;;;16.77;100.00;99772.50;5065902;28;20023;-18
2023/05/21 05:32:13;;;;;;;12.68;7.30;;;;;;;17.01;100.00;99776.31;5066429;28;20107;-18
2023/05/21 05:34:39;;;;;;;14.30;7.45;;;;;;;17.00;100.00;99768.50;5065778;28;20036;-18
2023/05/21 05:37:04;;;;;;;12.43;7.68;;;;;;;17.14;100.00;99775.00;5065948;28;20021;-18
2023/05/21 05:39:30;;;;;;;13.82;8.25;;;;;;;16.94;100.00;99769.56;5066181;28;20047;-17
2023/05/21 05:41:55;;;;;;;11.60;8.05;;;;;;;16.95;100.00;99773.91;5065475;28;20024;-19
2023/05/21 05:44:20;;;;;;;12.30;7.50;;;;;;;17.02;100.00;99783.34;5065887;28;20016;-19
2023/05/21 05:46:46;;;;;;;12.18;7.75;;;;;;;17.18;100.00;99775.25;5065615;28;20024;-18
2023/05/21 05:49:12;;;;;;;16.88;10.68;;;;;;;17.22;100.00;99785.25;5065614;28;20028;-18
2023/05/21 05:51:38;;;;;;;16.98;9.68;;;;;;;17.30;100.00;99786.56;5065547;28;20029;-18
2023/05/21 05:54:03;;;;;;;16.17;11.40;;;;;;;17.29;100.00;99784.16;5065540;28;20091;-18
2023/05/21 05:56:29;;;;;;;14.25;9.77;;;;;;;17.34;100.00;99786.84;5065788;28;20032;-23
2023/05/21 05:58:54;;;;;;;16.77;10.93;;;;;;;17.48;100.00;99787.91;5065559;28;20023;-17
2023/05/21 06:01:23;;;;;;;15.63;9.05;;;;;;;17.47;100.00;99789.00;5065548;28;20032;-18
2023/05/21 06:03:49;;;;;;;16.88;11.68;;;;;;;17.41;100.00;99787.38;5065371;28;20115;-18
2023/05/21 06:06:15;;;;;;;15.70;9.77;;;;;;;17.23;100.00;99786.84;5065420;28;20374;-18
2023/05/21 06:08:41;;;;;;;13.27;8.95;;;;;;;17.26;100.00;99764.75;5065058;28;20108;-18
2023/05/21 06:11:07;;;;;;;14.98;9.68;;;;;;;17.43;100.00;99791.41;5065239;28;20123;-19
2023/05/21 06:13:32;;;;;;;12.65;9.07;;;;;;;17.30;100.00;99785.75;5065535;28;20123;-18
2023/05/21 06:15:58;;;;;;;13.43;8.60;;;;;;;17.37;100.00;99786.31;5065201;28;20032;-18
2023/05/21 06:18:23;;;;;;;15.13;9.70;;;;;;;17.40;100.00;99785.75;5065420;28;20032;-18
2023/05/21 06:20:49;;;;;;;14.82;9.23;;;;;;;17.16;100.00;99789.00;5065525;28;20024;-19
2023/05/21 06:23:14;;;;;;;16.00;9.02;;;;;;;17.23;100.00;99781.44;5065248;28;20027;-19
2023/05/21 06:25:40;;;;;;;12.85;8.90;;;;;;;17.24;100.00;99776.88;5065076;28;20578;-19
2023/05/21 06:28:05;;;;;;;13.23;8.73;;;;;;;17.27;100.00;99787.91;5065244;28;20605;-20
2023/05/21 06:30:31;;;;;;;12.60;9.50;;;;;;;17.36;100.00;99771.19;5065294;28;20017;-18
2023/05/21 06:32:56;;;;;;;13.45;8.50;;;;;;;17.46;100.00;99785.47;5065218;28;20024;-18
2023/05/21 06:35:22;;;;;;;12.85;8.70;;;;;;;17.42;100.00;99779.00;5069006;28;20033;-18
2023/05/21 06:37:48;;;;;;;13.13;8.60;;;;;;;17.48;100.00;99782.50;5069556;28;20029;-18
2023/05/21 06:40:13;;;;;;;12.57;8.82;;;;;;;17.69;100.00;99788.66;5069245;28;20028;-21
2023/05/21 06:42:39;;;;;;;13.25;9.73;;;;;;;17.57;100.00;99786.28;5069459;28;20032;-18
2023/05/21 06:45:05;;;;;;;75.35;21.10;;;;;;;17.54;99.79;99786.00;5069547;28;20391;-18
2023/05/21 06:47:31;;;;;;;313.42;74.75;;;;;;;17.61;99.37;99781.97;5069304;28;20039;-18
2023/05/21 06:49:57;;;;;;;190.18;48.80;;;;;;;17.54;98.24;99786.00;5069047;28;20028;-19
2023/05/21 06:52:22;;;;;;;89.55;24.40;;;;;;;17.58;97.57;99782.50;5068982;28;20040;-20
2023/05/21 06:54:48;;;;;;;43.67;15.85;;;;;;;17.54;97.12;99773.34;5069116;28;20054;-19
2023/05/21 06:57:14;;;;;;;30.50;13.07;;;;;;;17.66;95.98;99784.63;5069008;28;20067;-19
2023/05/21 06:59:40;;;;;;;397.63;90.28;;;;;;;17.54;99.24;99770.63;5068846;28;20107;-18
2023/05/21 07:02:07;;;;;;;87.97;21.35;;;;;;;17.72;96.86;99780.06;5069066;28;20054;-18
2023/05/21 07:04:34;;;;;;;44.15;15.63;;;;;;;17.95;95.71;99786.75;5069444;28;20035;-18
2023/05/21 07:06:59;;;;;;;33.72;13.93;;;;;;;18.05;95.02;99791.31;5068839;28;20040;-19
2023/05/21 07:09:25;;;;;;;55.13;17.20;;;;;;;18.11;93.95;99800.22;5068891;28;20025;-18
2023/05/21 07:11:52;;;;;;;46.15;16.13;;;;;;;17.96;94.10;99776.78;5068807;28;20025;-18
2023/05/21 07:14:17;;;;;;;17.02;8.65;;;;;;;18.06;93.05;99784.81;5068700;28;20020;-18
2023/05/21 07:16:43;;;;;;;20.00;11.32;;;;;;;18.13;95.64;99790.75;5068835;28;20025;-18
2023/05/21 07:19:08;;;;;;;24.33;10.57;;;;;;;18.16;91.32;99781.28;5068648;28;20051;-18
2023/05/21 07:21:34;;;;;;;21.05;9.40;;;;;;;18.17;91.56;99782.91;5068910;28;20443;-20
2023/05/21 07:23:59;;;;;;;15.50;8.68;;;;;;;18.32;90.93;99780.13;5068604;28;20024;-19
2023/05/21 07:26:27;;;;;;;13.82;7.50;;;;;;;18.45;90.57;99790.34;5068278;28;20025;-18
2023/05/21 07:28:52;;;;;;;10.52;7.38;;;;;;;18.45;88.39;99787.66;5068661;28;20066;-18
2023/05/21 07:31:18;;;;;;;10.43;7.63;;;;;;;18.35;91.47;99784.16;5068552;28;20446;-17
2023/05/21 07:33:43;;;;;;;11.60;8.55;;;;;;;18.35;91.37;99776.91;5068477;28;20020;-18
2023/05/21 07:36:09;;;;;;;11.38;7.80;;;;;;;18.44;92.12;99786.03;5068167;28;20103;-22
2023/05/21 07:38:34;;;;;;;12.70;7.82;;;;;;;18.56;91.04;99780.28;5068817;28;20024;-18
2023/05/21 07:41:00;;;;;;;12.68;7.40;;;;;;;18.71;89.75;99794.78;5068211;28;20027;-22
2023/05/21 07:43:25;;;;;;;12.18;7.97;;;;;;;18.55;90.56;99791.38;5068456;28;20033;-18
2023/05/21 07:45:50;;;;;;;10.85;7.10;;;;;;;18.72;88.21;99786.41;5068324;28;20568;-19
2023/05/21 07:48:17;;;;;;;10.35;7.18;;;;;;;18.85;88.27;99799.31;5068693;28;20114;-18
2023/05/21 07:50:43;;;;;;;11.30;6.95;;;;;;;19.08;88.84;99802.41;5068278;28;20434;-18
2023/05/21 07:53:09;;;;;;;10.43;6.47;;;;;;;19.05;84.31;99797.56;5067768;28;20045;-23
2023/05/21 07:55:35;;;;;;;10.98;6.63;;;;;;;19.14;85.29;99803.19;5068328;28;20047;-19
2023/05/21 07:58:00;;;;;;;19.23;6.43;;;;;;;19.08;85.46;99797.00;5068133;28;20490;-18
2023/05/21 08:00:26;;;;;;;9.73;6.43;;;;;;;19.28;83.49;99791.44;5068007;28;20020;-18
2023/05/21 08:02:51;;;;;;;10.32;5.70;;;;;;;19.37;81.95;99793.53;5067941;28;20044;-18
2023/05/21 08:05:17;;;;;;;12.15;5.45;;;;;;;19.52;80.18;99790.69;5068419;28;20036;-19
2023/05/21 08:07:43;;;;;;;12.45;5.35;;;;;;;19.51;77.69;99794.47;5067921;28;20104;-19
2023/05/21 08:10:08;;;;;;;9.25;5.10;;;;;;;19.58;76.39;99794.16;5067885;28;20119;-22
2023/05/21 08:12:34;;;;;;;7.85;5.43;;;;;;;19.83;76.12;99795.81;5067963;28;20020;-18
2023/05/21 08:15:00;;;;;;;8.77;5.25;;;;;;;19.81;75.83;99792.59;5067593;28;20549;-18
2023/05/21 08:17:27;;;;;;;12.43;5.57;;;;;;;19.77;74.66;99802.38;5067905;28;20029;-18
2023/05/21 08:19:52;;;;;;;12.93;5.38;;;;;;;19.93;75.12;99797.63;5067621;28;20135;-20
2023/05/21 08:22:18;;;;;;;11.20;5.75;;;;;;;20.09;74.18;99799.06;5067562;28;20028;-18
2023/05/21 08:24:43;;;;;;;8.55;4.90;;;;;;;20.54;73.04;99794.16;5067466;28;20402;-18
2023/05/21 08:27:09;;;;;;;10.57;5.80;;;;;;;20.57;71.77;99798.97;5067492;28;20020;-18
2023/05/21 08:29:34;;;;;;;7.70;4.63;;;;;;;21.12;69.61;99795.75;5067815;28;20036;-18
2023/05/21 08:32:00;;;;;;;8.82;4.65;;;;;;;21.27;63.97;99789.31;5067406;28;20021;-18
2023/05/21 08:34:25;;;;;;;8.75;4.63;;;;;;;21.44;64.60;99778.72;5067279;28;20028;-18
2023/05/21 08:36:52;;;;;;;10.07;4.50;;;;;;;21.65;62.25;99791.91;5067380;28;20018;-18
2023/05/21 08:39:18;;;;;;;7.23;4.47;;;;;;;21.75;65.46;99793.66;5067371;28;20028;-19
2023/05/21 08:41:48;;;;;;;7.00;4.50;;;;;;;21.72;65.12;99794.22;5067297;28;20027;-18
2023/05/21 08:44:14;;;;;;;8.88;5.10;;;;;;;21.97;67.55;99798.41;5067216;28;20051;-19
2023/05/21 08:46:44;;;;;;;8.55;4.35;;;;;;;21.99;68.90;99798.91;5067393;28;20150;-19
2023/05/21 08:49:12;;;;;;;10.38;4.70;;;;;;;21.76;68.39;99789.81;5067129;28;20029;-18
2023/05/21 08:51:38;;;;;;;10.80;4.50;;;;;;;21.95;67.92;99787.84;5067243;28;20523;-18
2023/05/21 08:54:04;;;;;;;9.10;4.35;;;;;;;22.42;60.45;99788.53;5066944;28;20057;-18
2023/05/21 08:56:33;;;;;;;8.20;4.15;;;;;;;22.32;59.83;99775.16;5066346;28;20021;-18
2023/05/21 08:59:00;;;;;;;6.90;3.90;;;;;;;22.60;60.16;99791.41;5067029;28;20029;-18
2023/05/21 09:01:26;;;;;;;7.00;3.45;;;;;;;22.99;58.88;99798.16;5067026;28;21015;-18
2023/05/21 09:03:55;;;;;;;7.38;3.95;;;;;;;22.34;59.25;99772.94;5066651;28;20482;-18
2023/05/21 09:06:21;;;;;;;8.73;4.28;;;;;;;22.59;57.32;99801.47;5066870;28;20062;-18
2023/05/21 09:08:58;;;;;;;7.55;3.63;;;;;;;22.52;55.31;99784.00;5066461;28;20416;-18
2023/05/21 09:11:23;;;;;;;8.45;4.10;;;;;;;22.70;57.33;99791.19;5054780;28;20029;-18
2023/05/21 09:13:51;;;;;;;9.90;4.00;;;;;;;22.76;54.08;99792.69;5046384;28;20090;-19
2023/05/21 09:16:16;;;;;;;8.32;3.58;;;;;;;22.85;51.32;99815.28;5046478;28;20052;-18
2023/05/21 09:18:42;;;;;;;5.82;3.60;;;;;;;22.36;53.07;99803.31;5046321;28;20036;-18
2023/05/21 09:21:27;;;;;;;5.95;3.45;;;;;;;22.39;53.56;99813.59;5046479;28;20156;-18
2023/05/21 09:23:57;;;;;;;8.50;4.15;;;;;;;22.19;54.17;99803.94;5046094;28;20467;-18
2023/05/21 09:26:23;;;;;;;8.40;3.70;;;;;;;22.24;56.37;99803.03;5046291;28;20482;-19
2023/05/21 09:28:50;;;;;;;7.13;3.53;;;;;;;22.01;54.48;99781.19;5045959;28;20119;-18
2023/05/21 09:31:15;;;;;;;6.47;3.88;;;;;;;22.48;55.01;99810.16;5046372;28;20025;-19
2023/05/21 09:33:48;;;;;;;7.75;3.75;;;;;;;22.41;55.07;99805.13;5046247;28;20029;-19
2023/05/21 09:36:21;;;;;;;7.25;3.80;;;;;;;22.54;55.22;99787.22;5046213;28;20025;-22
2023/05/21 09:38:50;;;;;;;9.20;4.85;;;;;;;22.53;54.75;99810.84;5045936;28;20035;-16
2023/05/21 09:41:16;;;;;;;7.53;3.60;;;;;;;22.55;55.88;99805.09;5045998;28;20067;-19
2023/05/21 09:43:43;;;;;;;8.13;3.83;;;;;;;22.41;55.92;99810.56;5046141;28;20017;-19
2023/05/21 09:46:09;;;;;;;9.27;3.70;;;;;;;22.40;52.48;99822.56;5046398;28;20062;-18
2023/05/21 09:48:42;;;;;;;6.47;3.75;;;;;;;22.55;55.92;99814.06;5046087;28;20117;-18
2023/05/21 09:51:07;;;;;;;9.63;3.90;;;;;;;22.70;54.11;99821.09;5046099;28;20059;-18
2023/05/21 09:53:33;;;;;;;7.55;4.10;;;;;;;22.82;54.26;99815.94;5045731;28;20608;-19
2023/05/21 09:55:58;;;;;;;6.05;3.72;;;;;;;22.72;57.24;99810.72;5045470;28;20029;-19
2023/05/21 09:58:24;;;;;;;7.90;3.92;;;;;;;22.74;56.10;99808.50;5045702;28;20108;-18
2023/05/21 10:00:53;;;;;;;6.72;3.42;;;;;;;22.54;55.04;99808.94;5045612;28;20048;-18
2023/05/21 10:03:22;;;;;;;7.68;4.03;;;;;;;22.27;57.75;99788.84;5045438;28;20523;-18
2023/05/21 10:05:51;;;;;;;8.20;3.60;;;;;;;22.25;55.19;99804.63;5045322;28;20021;-18
2023/05/21 10:08:21;;;;;;;6.07;3.40;;;;;;;22.33;56.90;99803.13;5044839;28;20025;-17
2023/05/21 10:10:48;;;;;;;7.80;3.88;;;;;;;22.94;52.50;99814.56;5045393;28;20122;-18
2023/05/21 10:13:19;;;;;;;9.43;3.60;;;;;;;23.19;51.37;99821.34;5045473;28;20115;-22
2023/05/21 10:15:49;;;;;;;7.93;3.42;;;;;;;23.47;48.48;99809.19;5045578;28;20039;-20
2023/05/21 10:18:17;;;;;;;6.60;3.60;;;;;;;23.78;50.89;99803.00;5045331;28;20045;-23
2023/05/21 10:20:44;;;;;;;5.95;3.65;;;;;;;23.92;49.97;99812.97;5045482;28;20125;-19
2023/05/21 10:23:11;;;;;;;9.23;4.20;;;;;;;24.13;50.11;99802.31;5045637;28;20029;-18
2023/05/21 10:25:37;;;;;;;10.38;4.05;;;;;;;24.13;51.21;99802.31;5045165;28;20492;-18
2023/05/21 10:28:05;;;;;;;8.18;3.70;;;;;;;24.11;49.20;99794.47;5045103;28;20028;-18
2023/05/21 10:30:31;;;;;;;6.15;4.00;;;;;;;24.28;49.71;99810.06;5045373;28;20031;-18
2023/05/21 10:32:58;;;;;;;9.60;3.90;;;;;;;24.60;49.41;99808.88;5045280;28;20033;-20
2023/05/21 10:35:24;;;;;;;8.20;4.13;;;;;;;24.65;47.32;99811.44;5045268;28;20039;-18
2023/05/21 10:37:50;;;;;;;7.35;3.53;;;;;;;24.70;48.08;99810.47;5044861;28;20025;-18
2023/05/21 10:40:17;;;;;;;10.63;3.97;;;;;;;25.49;47.09;99813.19;5045225;28;20809;-18
2023/05/21 10:43:19;;;;;;;7.20;3.70;;;;;;;25.22;43.22;99821.41;5045295;28;20029;-19
2023/05/21 10:46:23;;;;;;;8.15;3.88;;;;;;;24.85;48.01;99807.28;5045168;28;20037;-21
2023/05/21 10:48:57;;;;;;;7.45;3.63;;;;;;;24.31;46.52;99809.41;5045050;28;20051;-18
2023/05/21 10:51:27;;;;;;;6.65;3.80;;;;;;;24.49;45.03;99798.56;5045027;28;20025;-18
2023/05/21 10:54:12;;;;;;;7.18;3.80;;;;;;;24.40;45.46;99801.28;5044988;28;20045;-19
2023/05/21 10:57:03;;;;;;;5.55;3.28;;;;;;;24.22;44.92;99795.78;5044790;28;20032;-18
2023/05/21 10:59:34;;;;;;;7.22;3.78;;;;;;;24.43;45.49;99800.63;5045038;28;20013;-18
2023/05/21 11:02:00;;;;;;;6.30;3.53;;;;;;;24.83;45.43;99798.63;5045084;28;20098;-19
2023/05/21 11:04:27;;;;;;;6.63;3.78;;;;;;;25.47;41.71;99791.66;5044897;28;20036;-18
2023/05/21 11:06:53;;;;;;;8.88;4.00;;;;;;;25.23;44.01;99811.28;5044901;28;20029;-19
2023/05/21 11:09:18;;;;;;;11.75;3.78;;;;;;;24.99;40.84;99806.31;5044970;28;20466;-19
2023/05/21 11:11:49;;;;;;;10.95;3.85;;;;;;;25.08;44.45;99798.94;5045095;28;20067;-19
2023/05/21 11:14:35;;;;;;;6.93;3.40;;;;;;;25.02;46.05;99786.56;5044889;28;20056;-22
2023/05/21 11:17:09;;;;;;;5.80;3.33;;;;;;;24.81;46.33;99789.16;5045161;28;20036;-18